Sims Road Atmospheric Data: 07/12/2019 Summary  Detailed Graphs  Station List

  Temperature     Wind Precipitation Visibility
Timestamp Air Wet
Bulb
Dew-
point
24-hr
Max
24-hr
Min
Relative
Humidity
Atmospheric
Pressure
Avg
Speed
Avg
Dir
Spot
Speed
Spot
Dir
Max
Speed
Max
Dir
  Rate Situation Start End 1 hr 3 hr 6 hr 12 hr 24 hr   Situation
Date Time °F °F °F °F °F % in Hg mph ° mph ° mph ° Y/N in/hr text Date Time Date Time in in in in in mi text
07/12/2019 12:05 AM 69.08 61.34 56.66 94.10 59.18 64.0 Not Reported 1.34 N 1.12 N 1.79 NW No 0.000 No Precipitation 06/13/2019 05:33 PM 06/13/2019 05:38 PM 0.000 0.000 0.000 0.000 0.000 Not Reported Not Reported
07/12/2019 12:20 AM 68.54 60.98 56.48 94.10 59.18 65.0 Not Reported 1.57 N 1.12 N 2.24 N No 0.000 No Precipitation 06/13/2019 05:33 PM 06/13/2019 05:38 PM 0.000 0.000 0.000 0.000 0.000 Not Reported Not Reported
07/12/2019 12:35 AM 68.18 60.98 56.48 94.10 59.18 65.0 Not Reported 0.45 NW 0.67 NW 2.46 N No 0.000 No Precipitation 06/13/2019 05:33 PM 06/13/2019 05:38 PM 0.000 0.000 0.000 0.000 0.000 Not Reported Not Reported
07/12/2019 12:50 AM 67.46 60.62 56.30 94.10 59.18 67.0 Not Reported 0.22 N 0.45 N 1.79 N No 0.000 No Precipitation 06/13/2019 05:33 PM 06/13/2019 05:38 PM 0.000 0.000 0.000 0.000 0.000 Not Reported Not Reported
07/12/2019 01:05 AM 66.92 60.26 56.12 94.10 59.18 68.0 Not Reported 1.34 N 1.34 N 2.68 NE No 0.000 No Precipitation 06/13/2019 05:33 PM 06/13/2019 05:38 PM 0.000 0.000 0.000 0.000 0.000 Not Reported Not Reported
07/12/2019 01:20 AM 66.38 59.90 55.94 94.10 59.18 69.0 Not Reported 0.89 N 0.89 N 2.46 NW No 0.000 No Precipitation 06/13/2019 05:33 PM 06/13/2019 05:38 PM 0.000 0.000 0.000 0.000 0.000 Not Reported Not Reported
07/12/2019 01:35 AM 66.20 59.72 55.76 94.10 59.18 68.0 Not Reported 0.22 SW 0.45 N 1.34 NW No 0.000 No Precipitation 06/13/2019 05:33 PM 06/13/2019 05:38 PM 0.000 0.000 0.000 0.000 0.000 Not Reported Not Reported
07/12/2019 01:50 AM 65.66 59.54 55.58 94.10 59.18 69.0 Not Reported 0.67 N 0.67 N 1.79 N No 0.000 No Precipitation 06/13/2019 05:33 PM 06/13/2019 05:38 PM 0.000 0.000 0.000 0.000 0.000 Not Reported Not Reported
07/12/2019 02:05 AM 65.12 59.18 55.22 94.10 59.18 70.0 Not Reported 1.57 N 1.34 N 1.34 N No 0.000 No Precipitation 06/13/2019 05:33 PM 06/13/2019 05:38 PM 0.000 0.000 0.000 0.000 0.000 Not Reported Not Reported
07/12/2019 02:20 AM 64.76 59.00 55.22 94.10 59.18 70.0 Not Reported 1.12 N 1.57 N 1.57 N No 0.000 No Precipitation 06/13/2019 05:33 PM 06/13/2019 05:38 PM 0.000 0.000 0.000 0.000 0.000 Not Reported Not Reported
07/12/2019 02:35 AM 64.58 58.82 55.04 94.10 59.18 71.0 Not Reported 0.89 NE 0.67 NE 1.79 N No 0.000 No Precipitation 06/13/2019 05:33 PM 06/13/2019 05:38 PM 0.000 0.000 0.000 0.000 0.000 Not Reported Not Reported
07/12/2019 02:50 AM 64.40 58.46 54.68 94.10 59.18 70.0 Not Reported 0.67 E 0.45 E 2.01 NE No 0.000 No Precipitation 06/13/2019 05:33 PM 06/13/2019 05:38 PM 0.000 0.000 0.000 0.000 0.000 Not Reported Not Reported
07/12/2019 03:05 AM 64.22 58.64 54.86 94.10 59.18 71.0 Not Reported 2.24 NE 1.12 N 1.79 NE No 0.000 No Precipitation 06/13/2019 05:33 PM 06/13/2019 05:38 PM 0.000 0.000 0.000 0.000 0.000 Not Reported Not Reported
07/12/2019 03:20 AM 63.86 58.28 54.50 94.10 59.18 71.0 Not Reported 0.67 NE 0.89 E 1.34 N No 0.000 No Precipitation 06/13/2019 05:33 PM 06/13/2019 05:38 PM 0.000 0.000 0.000 0.000 0.000 Not Reported Not Reported
07/12/2019 03:35 AM 63.68 58.28 54.50 94.10 59.18 71.0 Not Reported 1.34 NE 0.89 NE 1.34 NE No 0.000 No Precipitation 06/13/2019 05:33 PM 06/13/2019 05:38 PM 0.000 0.000 0.000 0.000 0.000 Not Reported Not Reported
07/12/2019 03:50 AM 63.14 57.92 54.50 94.10 59.18 73.0 Not Reported 1.34 NE 1.57 E 2.01 NE No 0.000 No Precipitation 06/13/2019 05:33 PM 06/13/2019 05:38 PM 0.000 0.000 0.000 0.000 0.000 Not Reported Not Reported
07/12/2019 04:05 AM 63.14 57.92 54.32 94.10 59.18 72.0 Not Reported 1.34 NE 0.67 NE 2.01 E No 0.000 No Precipitation 06/13/2019 05:33 PM 06/13/2019 05:38 PM 0.000 0.000 0.000 0.000 0.000 Not Reported Not Reported
07/12/2019 04:20 AM 63.50 57.92 54.14 94.10 59.18 71.0 Not Reported 0.67 NE 0.00 N 2.91 NE No 0.000 No Precipitation 06/13/2019 05:33 PM 06/13/2019 05:38 PM 0.000 0.000 0.000 0.000 0.000 Not Reported Not Reported
07/12/2019 04:35 AM 63.50 57.92 54.14 94.10 59.18 71.0 Not Reported 1.12 E 0.22 E 2.24 NE No 0.000 No Precipitation 06/13/2019 05:33 PM 06/13/2019 05:38 PM 0.000 0.000 0.000 0.000 0.000 Not Reported Not Reported
07/12/2019 04:50 AM 63.14 57.74 53.96 94.10 59.18 71.0 Not Reported 0.22 NE 0.00 E 0.89 NE No 0.000 No Precipitation 06/13/2019 05:33 PM 06/13/2019 05:38 PM 0.000 0.000 0.000 0.000 0.000 Not Reported Not Reported
07/12/2019 05:05 AM 62.42 57.20 53.60 94.10 59.18 72.0 Not Reported 0.00 NE 0.00 E 2.46 NE No 0.000 No Precipitation 06/13/2019 05:33 PM 06/13/2019 05:38 PM 0.000 0.000 0.000 0.000 0.000 Not Reported Not Reported
07/12/2019 05:20 AM 62.42 57.20 53.78 94.10 59.18 73.0 Not Reported 0.22 E 0.22 NE 1.57 SE No 0.000 No Precipitation 06/13/2019 05:33 PM 06/13/2019 05:38 PM 0.000 0.000 0.000 0.000 0.000 Not Reported Not Reported
07/12/2019 05:35 AM 62.06 57.02 53.42 94.10 59.18 73.0 Not Reported 0.00 E 0.67 NE 1.34 SE No 0.000 No Precipitation 06/13/2019 05:33 PM 06/13/2019 05:38 PM 0.000 0.000 0.000 0.000 0.000 Not Reported Not Reported
07/12/2019 05:50 AM 61.70 56.84 53.42 94.10 59.18 74.0 Not Reported 0.00 NE 0.00 SE 1.12 SE No 0.000 No Precipitation 06/13/2019 05:33 PM 06/13/2019 05:38 PM 0.000 0.000 0.000 0.000 0.000 Not Reported Not Reported
07/12/2019 06:05 AM 61.70 56.84 53.42 94.10 59.36 74.0 Not Reported 0.00 N 0.00 S 0.67 N No 0.000 No Precipitation 06/13/2019 05:33 PM 06/13/2019 05:38 PM 0.000 0.000 0.000 0.000 0.000 Not Reported Not Reported
07/12/2019 06:20 AM 61.52 56.66 53.24 94.10 59.72 74.0 Not Reported 0.00 NE 0.00 NW 0.22 SE No 0.000 No Precipitation 06/13/2019 05:33 PM 06/13/2019 05:38 PM 0.000 0.000 0.000 0.000 0.000 Not Reported Not Reported
07/12/2019 06:35 AM 61.34 56.48 53.24 94.10 60.26 74.0 Not Reported 0.22 NE 0.89 SE 0.89 W No 0.000 No Precipitation 06/13/2019 05:33 PM 06/13/2019 05:38 PM 0.000 0.000 0.000 0.000 0.000 Not Reported Not Reported
07/12/2019 06:50 AM 61.34 56.48 53.24 94.10 60.26 74.0 Not Reported 0.45 N 1.12 E 4.03 N No 0.000 No Precipitation 06/13/2019 05:33 PM 06/13/2019 05:38 PM 0.000 0.000 0.000 0.000 0.000 Not Reported Not Reported
07/12/2019 07:05 AM 61.34 56.48 53.24 94.10 60.26 74.0 Not Reported 0.67 N 2.01 N 1.79 N No 0.000 No Precipitation 06/13/2019 05:33 PM 06/13/2019 05:38 PM 0.000 0.000 0.000 0.000 0.000 Not Reported Not Reported
07/12/2019 07:20 AM 61.16 56.48 53.24 94.10 60.26 74.0 Not Reported 0.45 E 0.22 E 2.46 E No 0.000 No Precipitation 06/13/2019 05:33 PM 06/13/2019 05:38 PM 0.000 0.000 0.000 0.000 0.000 Not Reported Not Reported
07/12/2019 07:35 AM 60.98 56.48 53.42 94.10 60.26 75.0 Not Reported 0.45 NE 2.24 NE 1.57 E No 0.000 No Precipitation 06/13/2019 05:33 PM 06/13/2019 05:38 PM 0.000 0.000 0.000 0.000 0.000 Not Reported Not Reported
07/12/2019 07:50 AM 60.80 56.48 53.42 94.10 60.26 76.0 Not Reported 0.45 SE 0.22 SE 1.34 E No 0.000 No Precipitation 06/13/2019 05:33 PM 06/13/2019 05:38 PM 0.000 0.000 0.000 0.000 0.000 Not Reported Not Reported
07/12/2019 08:05 AM 60.80 56.48 53.42 94.10 60.26 76.0 Not Reported 0.22 E 0.89 S 2.46 NE No 0.000 No Precipitation 06/13/2019 05:33 PM 06/13/2019 05:38 PM 0.000 0.000 0.000 0.000 0.000 Not Reported Not Reported
07/12/2019 08:20 AM 60.62 56.48 53.60 94.10 60.26 77.0 Not Reported 0.22 NE 1.12 NE 2.91 E No 0.000 No Precipitation 06/13/2019 05:33 PM 06/13/2019 05:38 PM 0.000 0.000 0.000 0.000 0.000 Not Reported Not Reported
07/12/2019 08:35 AM 60.80 56.84 53.96 94.10 60.26 77.0 Not Reported 0.89 NE 1.34 NW 2.01 W No 0.000 No Precipitation 06/13/2019 05:33 PM 06/13/2019 05:38 PM 0.000 0.000 0.000 0.000 0.000 Not Reported Not Reported
07/12/2019 08:50 AM 62.06 57.56 54.50 94.10 60.44 75.0 Not Reported 0.45 NE 1.34 E 2.46 SW No 0.000 No Precipitation 06/13/2019 05:33 PM 06/13/2019 05:38 PM 0.000 0.000 0.000 0.000 0.000 Not Reported Not Reported
07/12/2019 09:05 AM 64.04 58.64 55.22 94.10 60.44 73.0 Not Reported 0.89 SW 0.45 NW 3.13 E No 0.000 No Precipitation 06/13/2019 05:33 PM 06/13/2019 05:38 PM 0.000 0.000 0.000 0.000 0.000 Not Reported Not Reported
07/12/2019 09:20 AM 65.30 59.54 55.58 94.10 60.44 70.0 Not Reported 1.57 E 1.57 E 3.36 N No 0.000 No Precipitation 06/13/2019 05:33 PM 06/13/2019 05:38 PM 0.000 0.000 0.000 0.000 0.000 Not Reported Not Reported
07/12/2019 09:35 AM 67.46 60.44 56.12 94.10 60.44 66.0 Not Reported 1.34 SE 1.57 N 4.03 NW No 0.000 No Precipitation 06/13/2019 05:33 PM 06/13/2019 05:38 PM 0.000 0.000 0.000 0.000 0.000 Not Reported Not Reported
07/12/2019 09:50 AM 69.08 61.34 56.66 94.10 60.44 64.0 Not Reported 1.12 S 1.57 S 3.36 E No 0.000 No Precipitation 06/13/2019 05:33 PM 06/13/2019 05:38 PM 0.000 0.000 0.000 0.000 0.000 Not Reported Not Reported
07/12/2019 10:05 AM 71.06 62.24 57.02 94.10 60.44 61.0 Not Reported 2.24 NE 1.34 SE 3.36 N No 0.000 No Precipitation 06/13/2019 05:33 PM 06/13/2019 05:38 PM 0.000 0.000 0.000 0.000 0.000 Not Reported Not Reported
07/12/2019 10:20 AM 72.68 63.50 57.92 94.10 60.44 59.0 Not Reported 0.67 SE 1.12 S 2.46 E No 0.000 No Precipitation 06/13/2019 05:33 PM 06/13/2019 05:38 PM 0.000 0.000 0.000 0.000 0.000 Not Reported Not Reported
07/12/2019 10:35 AM 73.58 64.40 59.18 94.10 60.44 60.0 Not Reported 1.12 SE 0.89 N 1.57 SE No 0.000 No Precipitation 06/13/2019 05:33 PM 06/13/2019 05:38 PM 0.000 0.000 0.000 0.000 0.000 Not Reported Not Reported
07/12/2019 10:50 AM 76.46 64.94 58.28 94.10 60.44 53.0 Not Reported 0.22 NE 0.00 SE 2.46 NE No 0.000 No Precipitation 06/13/2019 05:33 PM 06/13/2019 05:38 PM 0.000 0.000 0.000 0.000 0.000 Not Reported Not Reported
07/12/2019 11:05 AM 79.52 66.20 58.64 94.10 60.44 48.0 Not Reported 0.89 NE 0.00 NE 2.24 N No 0.000 No Precipitation 06/13/2019 05:33 PM 06/13/2019 05:38 PM 0.000 0.000 0.000 0.000 0.000 Not Reported Not Reported
07/12/2019 11:20 AM 80.96 64.76 55.22 94.10 60.44 41.0 Not Reported 1.79 N 2.24 NE 2.68 N No 0.000 No Precipitation 06/13/2019 05:33 PM 06/13/2019 05:38 PM 0.000 0.000 0.000 0.000 0.000 Not Reported Not Reported
07/12/2019 11:35 AM 81.86 64.94 54.68 94.10 60.44 39.0 Not Reported 0.89 N 1.79 NE 2.24 NE No 0.000 No Precipitation 06/13/2019 05:33 PM 06/13/2019 05:38 PM 0.000 0.000 0.000 0.000 0.000 Not Reported Not Reported
07/12/2019 11:50 AM 85.10 66.38 55.40 94.10 60.44 36.0 Not Reported 0.45 E 0.45 SE 0.89 SE No 0.000 No Precipitation 06/13/2019 05:33 PM 06/13/2019 05:38 PM 0.000 0.000 0.000 0.000 0.000 Not Reported Not Reported
07/12/2019 12:05 PM 85.82 66.02 54.32 94.10 60.44 33.0 Not Reported 1.57 S 2.24 S 2.46 SE No 0.000 No Precipitation 06/13/2019 05:33 PM 06/13/2019 05:38 PM 0.000 0.000 0.000 0.000 0.000 Not Reported Not Reported
07/12/2019 12:20 PM 86.54 66.20 53.78 94.10 60.44 32.0 Not Reported 0.89 SE 1.34 S 2.91 SE No 0.000 No Precipitation 06/13/2019 05:33 PM 06/13/2019 05:38 PM 0.000 0.000 0.000 0.000 0.000 Not Reported Not Reported
07/12/2019 12:35 PM 88.34 66.20 52.88 94.10 60.44 29.0 Not Reported 1.34 N 3.58 SW 4.03 SW No 0.000 No Precipitation 06/13/2019 05:33 PM 06/13/2019 05:38 PM 0.000 0.000 0.000 0.000 0.000 Not Reported Not Reported
07/12/2019 12:50 PM 88.52 66.74 53.78 94.10 60.44 30.0 Not Reported 1.79 S 4.25 S 5.14 S No 0.000 No Precipitation 06/13/2019 05:33 PM 06/13/2019 05:38 PM 0.000 0.000 0.000 0.000 0.000 Not Reported Not Reported
07/12/2019 01:05 PM 90.32 67.10 53.24 94.10 60.44 28.0 Not Reported 0.89 SE 2.91 SE 4.25 SE No 0.000 No Precipitation 06/13/2019 05:33 PM 06/13/2019 05:38 PM 0.000 0.000 0.000 0.000 0.000 Not Reported Not Reported
07/12/2019 01:20 PM 89.96 67.46 54.32 94.10 60.44 29.0 Not Reported 2.68 S 4.47 SE 5.14 S No 0.000 No Precipitation 06/13/2019 05:33 PM 06/13/2019 05:38 PM 0.000 0.000 0.000 0.000 0.000 Not Reported Not Reported
07/12/2019 01:35 PM 91.76 67.10 52.34 94.10 60.44 26.0 Not Reported 2.91 S 1.57 SE 4.70 S No 0.000 No Precipitation 06/13/2019 05:33 PM 06/13/2019 05:38 PM 0.000 0.000 0.000 0.000 0.000 Not Reported Not Reported
07/12/2019 01:50 PM 90.50 67.46 53.60 94.10 60.44 28.0 Not Reported 2.91 SW 2.46 S 4.03 SW No 0.000 No Precipitation 06/13/2019 05:33 PM 06/13/2019 05:38 PM 0.000 0.000 0.000 0.000 0.000 Not Reported Not Reported
07/12/2019 02:05 PM 91.58 66.74 51.44 94.10 60.44 25.0 Not Reported 2.01 S 2.91 SE 5.59 SE No 0.000 No Precipitation 06/13/2019 05:33 PM 06/13/2019 05:38 PM 0.000 0.000 0.000 0.000 0.000 Not Reported Not Reported
07/12/2019 02:20 PM 92.48 67.28 52.16 94.10 60.44 25.0 Not Reported 2.24 SE 2.91 S 4.92 S No 0.000 No Precipitation 06/13/2019 05:33 PM 06/13/2019 05:38 PM 0.000 0.000 0.000 0.000 0.000 Not Reported Not Reported
07/12/2019 02:35 PM 93.38 67.28 51.26 95.72 60.44 23.0 Not Reported 1.57 SE 2.68 SW 4.92 S No 0.000 No Precipitation 06/13/2019 05:33 PM 06/13/2019 05:38 PM 0.000 0.000 0.000 0.000 0.000 Not Reported Not Reported
07/12/2019 02:50 PM 93.20 67.82 52.52 95.72 60.44 25.0 Not Reported 2.68 S 3.13 SW 6.26 SW No 0.000 No Precipitation 06/13/2019 05:33 PM 06/13/2019 05:38 PM 0.000 0.000 0.000 0.000 0.000 Not Reported Not Reported
07/12/2019 03:05 PM 93.56 67.64 51.62 95.72 60.44 24.0 Not Reported 4.25 S 4.70 S 6.26 SW No 0.000 No Precipitation 06/13/2019 05:33 PM 06/13/2019 05:38 PM 0.000 0.000 0.000 0.000 0.000 Not Reported Not Reported
07/12/2019 03:20 PM 91.58 67.28 52.70 95.72 60.44 26.0 Not Reported 4.25 S 5.82 S 5.82 S No 0.000 No Precipitation 06/13/2019 05:33 PM 06/13/2019 05:38 PM 0.000 0.000 0.000 0.000 0.000 Not Reported Not Reported
07/12/2019 03:35 PM 93.02 68.18 53.60 95.72 60.44 26.0 Not Reported 2.46 S 2.46 S 4.70 S No 0.000 No Precipitation 06/13/2019 05:33 PM 06/13/2019 05:38 PM 0.000 0.000 0.000 0.000 0.000 Not Reported Not Reported
07/12/2019 03:50 PM 94.46 68.18 53.24 95.72 60.44 25.0 Not Reported 3.80 SE 5.37 SE 5.37 SE No 0.000 No Precipitation 06/13/2019 05:33 PM 06/13/2019 05:38 PM 0.000 0.000 0.000 0.000 0.000 Not Reported Not Reported
07/12/2019 04:05 PM 93.38 68.18 53.60 96.62 60.44 26.0 Not Reported 3.58 S 6.04 SW 4.25 S No 0.000 No Precipitation 06/13/2019 05:33 PM 06/13/2019 05:38 PM 0.000 0.000 0.000 0.000 0.000 Not Reported Not Reported
07/12/2019 04:20 PM 95.36 69.80 55.04 96.62 60.44 26.0 Not Reported 4.25 S 3.36 E 5.37 S No 0.000 No Precipitation 06/13/2019 05:33 PM 06/13/2019 05:38 PM 0.000 0.000 0.000 0.000 0.000 Not Reported Not Reported
07/12/2019 04:35 PM 96.44 68.90 53.06 96.62 60.44 23.0 Not Reported 4.70 SE 3.58 S 5.14 SW No 0.000 No Precipitation 06/13/2019 05:33 PM 06/13/2019 05:38 PM 0.000 0.000 0.000 0.000 0.000 Not Reported Not Reported
07/12/2019 04:50 PM 94.82 68.00 51.98 96.80 60.44 23.0 Not Reported 2.46 SE 0.67 SE 4.92 E No 0.000 No Precipitation 06/13/2019 05:33 PM 06/13/2019 05:38 PM 0.000 0.000 0.000 0.000 0.000 Not Reported Not Reported
07/12/2019 05:05 PM 95.36 68.36 52.16 97.16 60.44 23.0 Not Reported 4.70 S 4.47 SE 4.92 S No 0.000 No Precipitation 06/13/2019 05:33 PM 06/13/2019 05:38 PM 0.000 0.000 0.000 0.000 0.000 Not Reported Not Reported
07/12/2019 05:20 PM 95.72 68.00 51.26 97.34 60.44 22.0 Not Reported 3.58 SE 3.36 SE 4.92 SE No 0.000 No Precipitation 06/13/2019 05:33 PM 06/13/2019 05:38 PM 0.000 0.000 0.000 0.000 0.000 Not Reported Not Reported
07/12/2019 05:35 PM 96.44 68.90 52.70 97.34 60.44 23.0 Not Reported 1.57 SE 4.03 SE 9.17 S No 0.000 No Precipitation 06/13/2019 05:33 PM 06/13/2019 05:38 PM 0.000 0.000 0.000 0.000 0.000 Not Reported Not Reported
07/12/2019 05:50 PM 94.82 67.64 51.26 97.34 60.44 22.0 Not Reported 3.13 SE 3.36 SE 7.16 S No 0.000 No Precipitation 06/13/2019 05:33 PM 06/13/2019 05:38 PM 0.000 0.000 0.000 0.000 0.000 Not Reported Not Reported
07/12/2019 06:05 PM 95.36 67.82 51.26 97.34 60.44 22.0 Not Reported 2.68 S 5.14 SE 5.59 S No 0.000 No Precipitation 06/13/2019 05:33 PM 06/13/2019 05:38 PM 0.000 0.000 0.000 0.000 0.000 Not Reported Not Reported
07/12/2019 06:20 PM 97.16 68.90 52.52 97.34 60.44 22.0 Not Reported 1.79 SE 0.67 S 5.82 S No 0.000 No Precipitation 06/13/2019 05:33 PM 06/13/2019 05:38 PM 0.000 0.000 0.000 0.000 0.000 Not Reported Not Reported
07/12/2019 06:35 PM 96.08 68.00 50.90 97.34 60.44 21.0 Not Reported 3.58 S 5.37 S 4.47 S No 0.000 No Precipitation 06/13/2019 05:33 PM 06/13/2019 05:38 PM 0.000 0.000 0.000 0.000 0.000 Not Reported Not Reported
07/12/2019 06:50 PM 94.82 67.82 51.62 97.34 60.44 23.0 Not Reported 3.13 S 3.13 E 6.04 SE No 0.000 No Precipitation 06/13/2019 05:33 PM 06/13/2019 05:38 PM 0.000 0.000 0.000 0.000 0.000 Not Reported Not Reported
07/12/2019 07:05 PM 94.82 67.64 51.08 97.34 60.44 22.0 Not Reported 2.68 S 0.45 S 4.25 SE No 0.000 No Precipitation 06/13/2019 05:33 PM 06/13/2019 05:38 PM 0.000 0.000 0.000 0.000 0.000 Not Reported Not Reported
07/12/2019 07:20 PM 92.84 67.10 51.26 97.34 60.44 24.0 Not Reported 2.24 S 2.01 S 4.03 SE No 0.000 No Precipitation 06/13/2019 05:33 PM 06/13/2019 05:38 PM 0.000 0.000 0.000 0.000 0.000 Not Reported Not Reported
07/12/2019 07:35 PM 92.12 66.56 51.26 97.34 60.44 24.0 Not Reported 1.34 SW 1.12 NE 3.58 S No 0.000 No Precipitation 06/13/2019 05:33 PM 06/13/2019 05:38 PM 0.000 0.000 0.000 0.000 0.000 Not Reported Not Reported
07/12/2019 07:50 PM 90.50 66.02 51.08 97.34 60.44 26.0 Not Reported 0.89 SW 1.79 W 5.37 S No 0.000 No Precipitation 06/13/2019 05:33 PM 06/13/2019 05:38 PM 0.000 0.000 0.000 0.000 0.000 Not Reported Not Reported
07/12/2019 08:05 PM 89.42 66.02 51.44 97.34 60.44 27.0 Not Reported 0.22 N 1.79 SW 1.79 NW No 0.000 No Precipitation 06/13/2019 05:33 PM 06/13/2019 05:38 PM 0.000 0.000 0.000 0.000 0.000 Not Reported Not Reported
07/12/2019 08:20 PM 87.80 66.56 53.78 97.34 60.44 31.0 Not Reported 0.00 W 0.00 N 2.01 SE No 0.000 No Precipitation 06/13/2019 05:33 PM 06/13/2019 05:38 PM 0.000 0.000 0.000 0.000 0.000 Not Reported Not Reported
07/12/2019 08:35 PM 85.10 66.38 55.40 97.34 60.44 36.0 Not Reported 1.57 N 0.67 SE 1.57 S No 0.000 No Precipitation 06/13/2019 05:33 PM 06/13/2019 05:38 PM 0.000 0.000 0.000 0.000 0.000 Not Reported Not Reported
07/12/2019 08:50 PM 82.04 66.02 56.84 97.34 60.44 42.0 Not Reported 1.34 N 1.34 N 2.01 N No 0.000 No Precipitation 06/13/2019 05:33 PM 06/13/2019 05:38 PM 0.000 0.000 0.000 0.000 0.000 Not Reported Not Reported
07/12/2019 09:05 PM 80.06 65.84 57.74 97.34 60.44 46.0 Not Reported 1.12 N 1.34 N 1.79 N No 0.000 No Precipitation 06/13/2019 05:33 PM 06/13/2019 05:38 PM 0.000 0.000 0.000 0.000 0.000 Not Reported Not Reported
07/12/2019 09:20 PM 78.80 65.84 58.46 97.34 60.44 49.0 Not Reported 1.12 N 1.34 N 1.79 NW No 0.000 No Precipitation 06/13/2019 05:33 PM 06/13/2019 05:38 PM 0.000 0.000 0.000 0.000 0.000 Not Reported Not Reported
07/12/2019 09:35 PM 77.18 65.66 59.00 97.34 60.44 53.0 Not Reported 0.89 N 0.45 N 2.68 N No 0.000 No Precipitation 06/13/2019 05:33 PM 06/13/2019 05:38 PM 0.000 0.000 0.000 0.000 0.000 Not Reported Not Reported
07/12/2019 09:50 PM 76.46 65.12 59.00 97.34 60.44 54.0 Not Reported 0.89 NE 1.12 N 2.01 N No 0.000 No Precipitation 06/13/2019 05:33 PM 06/13/2019 05:38 PM 0.000 0.000 0.000 0.000 0.000 Not Reported Not Reported
07/12/2019 10:05 PM 75.56 64.58 58.28 97.34 60.44 54.0 Not Reported 0.45 NE 0.00 NE 2.46 N No 0.000 No Precipitation 06/13/2019 05:33 PM 06/13/2019 05:38 PM 0.000 0.000 0.000 0.000 0.000 Not Reported Not Reported
07/12/2019 10:20 PM 74.48 64.22 58.10 97.34 60.44 56.0 Not Reported 0.45 NE 0.00 NE 2.24 N No 0.000 No Precipitation 06/13/2019 05:33 PM 06/13/2019 05:38 PM 0.000 0.000 0.000 0.000 0.000 Not Reported Not Reported
07/12/2019 10:35 PM 73.76 64.04 58.64 97.34 60.44 59.0 Not Reported 1.12 N 2.01 N 1.57 N No 0.000 No Precipitation 06/13/2019 05:33 PM 06/13/2019 05:38 PM 0.000 0.000 0.000 0.000 0.000 Not Reported Not Reported
07/12/2019 10:50 PM 73.58 63.86 58.28 97.34 60.44 58.0 Not Reported 0.22 N 0.45 N 2.24 N No 0.000 No Precipitation 06/13/2019 05:33 PM 06/13/2019 05:38 PM 0.000 0.000 0.000 0.000 0.000 Not Reported Not Reported
07/12/2019 11:05 PM 73.76 64.22 58.64 97.34 60.44 59.0 Not Reported 1.79 NW 1.34 N 2.24 NW No 0.000 No Precipitation 06/13/2019 05:33 PM 06/13/2019 05:38 PM 0.000 0.000 0.000 0.000 0.000 Not Reported Not Reported
07/12/2019 11:20 PM 72.68 63.68 58.46 97.34 60.44 60.0 Not Reported 1.12 N 1.34 NW 2.01 N No 0.000 No Precipitation 06/13/2019 05:33 PM 06/13/2019 05:38 PM 0.000 0.000 0.000 0.000 0.000 Not Reported Not Reported
07/12/2019 11:35 PM 72.68 63.32 57.92 97.34 60.44 59.0 Not Reported 1.57 N 0.89 N 3.13 NW No 0.000 No Precipitation 06/13/2019 05:33 PM 06/13/2019 05:38 PM 0.000 0.000 0.000 0.000 0.000 Not Reported Not Reported
07/12/2019 11:50 PM 71.60 62.96 57.92 97.34 60.44 62.0 Not Reported 0.45 N 0.45 N 2.01 N No 0.000 No Precipitation 06/13/2019 05:33 PM 06/13/2019 05:38 PM 0.000 0.000 0.000 0.000 0.000 Not Reported Not Reported